createdAt,value
2018-12-23T00:00:07.920Z,1017.11
2018-12-23T00:01:07.920Z,1017.15
2018-12-23T00:02:07.885Z,1017.08
2018-12-23T00:03:07.898Z,1017.21
2018-12-23T00:04:07.858Z,1017.08
2018-12-23T00:05:11.591Z,1017.13
2018-12-23T00:06:07.869Z,1017.10
2018-12-23T00:07:07.835Z,1017.07
2018-12-23T00:08:07.824Z,1017.08
2018-12-23T00:09:07.816Z,1017.12
2018-12-23T00:10:07.799Z,1017.12
2018-12-23T00:11:07.808Z,1017.14
2018-12-23T00:12:07.785Z,1017.11
2018-12-23T00:13:07.804Z,1017.17
2018-12-23T00:14:07.760Z,1017.06
2018-12-23T00:15:07.741Z,1017.12
2018-12-23T00:16:07.733Z,1017.14
2018-12-23T00:17:07.721Z,1017.11
2018-12-23T00:18:07.714Z,1017.16
2018-12-23T00:19:07.723Z,1017.18
2018-12-23T00:20:07.691Z,1017.21
2018-12-23T00:21:07.672Z,1017.23
2018-12-23T00:22:07.663Z,1017.17
2018-12-23T00:23:07.655Z,1017.21
2018-12-23T00:24:07.663Z,1017.23
2018-12-23T00:25:07.639Z,1017.22
2018-12-23T00:26:07.655Z,1017.23
2018-12-23T00:27:07.615Z,1017.23
2018-12-23T00:28:07.691Z,1017.23
2018-12-23T00:29:07.598Z,1017.22
2018-12-23T00:30:07.610Z,1017.23
2018-12-23T00:31:07.561Z,1017.21
2018-12-23T00:32:07.553Z,1017.27
2018-12-23T00:33:07.542Z,1017.16
2018-12-23T00:34:07.558Z,1017.19
2018-12-23T00:35:07.518Z,1017.18
2018-12-23T00:36:07.518Z,1017.21
2018-12-23T00:37:07.521Z,1017.19
2018-12-23T00:38:07.487Z,1017.16
2018-12-23T00:39:07.485Z,1017.11
2018-12-23T00:40:07.478Z,1017.12
2018-12-23T00:41:07.453Z,1017.10
2018-12-23T00:42:07.495Z,1017.04
2018-12-23T00:43:07.465Z,1017.04
2018-12-23T00:44:07.430Z,1017.06
2018-12-23T00:45:07.458Z,1017.12
2018-12-23T00:46:07.419Z,1017.13
2018-12-23T00:47:07.389Z,1017.10
2018-12-23T00:48:07.376Z,1017.15
2018-12-23T00:49:07.366Z,1017.21
2018-12-23T00:50:07.351Z,1017.25
2018-12-23T00:51:07.368Z,1017.22
2018-12-23T00:52:07.331Z,1017.20
2018-12-23T00:53:07.329Z,1017.18
2018-12-23T00:54:07.313Z,1017.24
2018-12-23T00:55:07.300Z,1017.22
2018-12-23T00:56:07.313Z,1017.24
2018-12-23T00:57:07.288Z,1017.22
2018-12-23T00:58:07.266Z,1017.19
2018-12-23T00:59:07.256Z,1017.17
2018-12-23T01:00:07.244Z,1017.18
2018-12-23T01:01:07.304Z,1017.13
2018-12-23T01:02:07.245Z,1017.23
2018-12-23T01:03:07.217Z,1017.18
2018-12-23T01:04:07.214Z,1017.23
2018-12-23T01:05:07.194Z,1017.31
2018-12-23T01:06:07.186Z,1017.24
2018-12-23T01:07:07.190Z,1017.36
2018-12-23T01:08:07.185Z,1017.33
2018-12-23T01:09:07.148Z,1017.33
2018-12-23T01:10:07.136Z,1017.38
2018-12-23T01:11:07.133Z,1017.39
2018-12-23T01:12:07.117Z,1017.31
2018-12-23T01:13:07.125Z,1017.35
2018-12-23T01:14:07.093Z,1017.35
2018-12-23T01:15:07.080Z,1017.35
2018-12-23T01:16:07.075Z,1017.32
2018-12-23T01:17:07.059Z,1017.31
2018-12-23T01:18:07.164Z,1017.46
2018-12-23T01:19:07.066Z,1017.45
2018-12-23T01:20:07.022Z,1017.40
2018-12-23T01:21:07.012Z,1017.45
2018-12-23T01:22:07.748Z,1017.48
2018-12-23T01:23:06.992Z,1017.41
2018-12-23T01:24:07.006Z,1017.35
2018-12-23T01:25:07.062Z,1017.31
2018-12-23T01:26:06.955Z,1017.38
2018-12-23T01:27:06.954Z,1017.42
2018-12-23T01:28:06.939Z,1017.39
2018-12-23T01:29:06.928Z,1017.39
2018-12-23T01:30:06.918Z,1017.33
2018-12-23T01:31:06.936Z,1017.35
2018-12-23T01:32:06.890Z,1017.35
2018-12-23T01:33:06.902Z,1017.33
2018-12-23T01:34:06.873Z,1017.38
2018-12-23T01:35:06.859Z,1017.47
2018-12-23T01:36:06.854Z,1017.43
2018-12-23T01:37:06.863Z,1017.48
2018-12-23T01:38:06.832Z,1017.58
2018-12-23T01:39:06.815Z,1017.49
2018-12-23T01:40:06.808Z,1017.56
2018-12-23T01:41:06.902Z,1017.56
2018-12-23T01:42:06.793Z,1017.55
2018-12-23T01:43:06.770Z,1017.51
2018-12-23T01:44:06.761Z,1017.48
2018-12-23T01:45:06.748Z,1017.56
2018-12-23T01:46:06.740Z,1017.57
2018-12-23T01:47:06.749Z,1017.59
2018-12-23T01:48:06.712Z,1017.59
2018-12-23T01:49:06.706Z,1017.71
2018-12-23T01:50:06.693Z,1017.65
2018-12-23T01:51:06.687Z,1017.73
2018-12-23T01:52:06.673Z,1017.76
2018-12-23T01:53:06.684Z,1017.78
2018-12-23T01:54:06.653Z,1017.77
2018-12-23T01:55:06.647Z,1017.81
2018-12-23T01:56:06.634Z,1017.73
2018-12-23T01:57:06.639Z,1017.75
2018-12-23T01:58:06.629Z,1017.76
2018-12-23T01:59:06.599Z,1017.71
2018-12-23T02:00:06.588Z,1017.70
2018-12-23T02:01:06.571Z,1017.72
2018-12-23T02:02:07.239Z,1017.77
2018-12-23T02:03:06.576Z,1017.77
2018-12-23T02:04:06.545Z,1017.77
2018-12-23T02:05:06.607Z,1017.82
2018-12-23T02:06:06.516Z,1017.77
2018-12-23T02:07:06.509Z,1017.74
2018-12-23T02:08:06.498Z,1017.71
2018-12-23T02:09:06.509Z,1017.77
2018-12-23T02:10:06.473Z,1017.72
2018-12-23T02:11:06.465Z,1017.72
2018-12-23T02:12:06.456Z,1017.71
2018-12-23T02:13:06.443Z,1017.66
2018-12-23T02:14:06.429Z,1017.65
2018-12-23T02:15:06.445Z,1017.65
2018-12-23T02:16:06.413Z,1017.73
2018-12-23T02:17:06.399Z,1017.76
2018-12-23T02:18:06.572Z,1017.76
2018-12-23T02:19:06.375Z,1017.82
2018-12-23T02:20:06.390Z,1017.86
2018-12-23T02:21:06.418Z,1017.78
2018-12-23T02:22:06.343Z,1017.75
2018-12-23T02:23:06.330Z,1017.68
2018-12-23T02:24:06.320Z,1017.66
2018-12-23T02:25:06.324Z,1017.71
2018-12-23T02:26:06.329Z,1017.69
2018-12-23T02:27:06.285Z,1017.68
2018-12-23T02:28:06.299Z,1017.68
2018-12-23T02:29:06.268Z,1017.74
2018-12-23T02:30:06.265Z,1017.74
2018-12-23T02:31:06.263Z,1017.71
2018-12-23T02:32:06.235Z,1017.73
2018-12-23T02:33:06.241Z,1017.76
2018-12-23T02:34:06.207Z,1017.75
2018-12-23T02:35:06.255Z,1017.77
2018-12-23T02:36:06.213Z,1017.78
2018-12-23T02:37:06.294Z,1017.79
2018-12-23T02:38:06.162Z,1017.77
2018-12-23T02:39:06.163Z,1017.75
2018-12-23T02:40:06.171Z,1017.73
2018-12-23T02:41:06.133Z,1017.61
2018-12-23T02:42:06.148Z,1017.62
2018-12-23T02:43:06.150Z,1017.71
2018-12-23T02:44:06.099Z,1017.75
2018-12-23T02:45:06.086Z,1017.69
2018-12-23T02:46:06.082Z,1017.72
2018-12-23T02:47:06.073Z,1017.75
2018-12-23T02:48:06.058Z,1017.68
2018-12-23T02:49:06.070Z,1017.70
2018-12-23T02:50:06.032Z,1017.67
2018-12-23T02:51:06.022Z,1017.68
2018-12-23T02:52:06.009Z,1017.68
2018-12-23T02:53:06.001Z,1017.61
2018-12-23T02:54:06.009Z,1017.67
2018-12-23T02:55:05.971Z,1017.72
2018-12-23T02:56:05.960Z,1017.72
2018-12-23T02:57:05.956Z,1017.71
2018-12-23T02:58:06.114Z,1017.74
2018-12-23T02:59:05.954Z,1017.73
2018-12-23T03:00:05.944Z,1017.73
2018-12-23T03:01:05.923Z,1017.71
2018-12-23T03:02:05.902Z,1017.71
2018-12-23T03:03:05.904Z,1017.72
2018-12-23T03:04:05.907Z,1017.77
2018-12-23T03:05:05.861Z,1017.73
2018-12-23T03:06:06.496Z,1017.71
2018-12-23T03:07:05.852Z,1017.69
2018-12-23T03:08:05.847Z,1017.77
2018-12-23T03:09:05.848Z,1017.73
2018-12-23T03:10:05.816Z,1017.80
2018-12-23T03:11:05.797Z,1017.76
2018-12-23T03:12:05.798Z,1017.69
2018-12-23T03:13:05.776Z,1017.64
2018-12-23T03:14:05.923Z,1017.60
2018-12-23T03:15:05.755Z,1017.57
2018-12-23T03:16:05.741Z,1017.59
2018-12-23T03:17:05.753Z,1017.67
2018-12-23T03:18:05.728Z,1017.68
2018-12-23T03:19:05.715Z,1017.69
2018-12-23T03:20:05.726Z,1017.68
2018-12-23T03:21:05.684Z,1017.65
2018-12-23T03:22:05.682Z,1017.70
2018-12-23T03:23:05.670Z,1017.66
2018-12-23T03:24:05.659Z,1017.63
2018-12-23T03:25:05.655Z,1017.58
2018-12-23T03:26:05.670Z,1017.63
2018-12-23T03:27:05.617Z,1017.63
2018-12-23T03:28:05.612Z,1017.58
2018-12-23T03:29:05.615Z,1017.61
2018-12-23T03:30:05.597Z,1017.58
2018-12-23T03:31:05.585Z,1017.55
2018-12-23T03:32:05.609Z,1017.56
2018-12-23T03:33:05.639Z,1017.50
2018-12-23T03:34:05.546Z,1017.57
2018-12-23T03:35:05.530Z,1017.48
2018-12-23T03:36:14.779Z,1017.47
2018-12-23T03:37:06.531Z,1017.53
2018-12-23T03:38:05.499Z,1017.55
2018-12-23T03:39:05.495Z,1017.49
2018-12-23T03:40:05.521Z,1017.50
2018-12-23T03:41:05.516Z,1017.48
2018-12-23T03:42:05.472Z,1017.53
2018-12-23T03:43:05.437Z,1017.56
2018-12-23T03:44:05.433Z,1017.54
2018-12-23T03:45:05.449Z,1017.47
2018-12-23T03:46:05.416Z,1017.46
2018-12-23T03:47:05.398Z,1017.54
2018-12-23T03:48:05.392Z,1017.51
2018-12-23T03:49:05.371Z,1017.53
2018-12-23T03:50:05.367Z,1017.47
2018-12-23T03:51:05.375Z,1017.52
2018-12-23T03:52:05.346Z,1017.53
2018-12-23T03:53:05.338Z,1017.50
2018-12-23T03:54:05.361Z,1017.52
2018-12-23T03:55:05.316Z,1017.54
2018-12-23T03:56:05.325Z,1017.50
2018-12-23T03:57:05.302Z,1017.46
2018-12-23T03:58:05.280Z,1017.45
2018-12-23T03:59:05.378Z,1017.48
2018-12-23T04:00:05.252Z,1017.49
2018-12-23T04:01:05.242Z,1017.51
2018-12-23T04:02:05.251Z,1017.54
2018-12-23T04:03:05.333Z,1017.51
2018-12-23T04:04:05.215Z,1017.50
2018-12-23T04:05:05.204Z,1017.47
2018-12-23T04:06:05.189Z,1017.42
2018-12-23T04:07:05.207Z,1017.41
2018-12-23T04:08:05.170Z,1017.44
2018-12-23T04:09:05.163Z,1017.42
2018-12-23T04:10:05.148Z,1017.47
2018-12-23T04:11:05.136Z,1017.45
2018-12-23T04:12:05.123Z,1017.52
2018-12-23T04:13:05.672Z,1017.49
2018-12-23T04:14:05.113Z,1017.47
2018-12-23T04:15:05.087Z,1017.47
2018-12-23T04:16:05.090Z,1017.46
2018-12-23T04:17:05.070Z,1017.47
2018-12-23T04:18:05.059Z,1017.45
2018-12-23T04:19:05.074Z,1017.47
2018-12-23T04:20:05.038Z,1017.57
2018-12-23T04:21:05.023Z,1017.41
2018-12-23T04:22:05.019Z,1017.47
2018-12-23T04:23:05.005Z,1017.46
2018-12-23T04:24:05.020Z,1017.48
2018-12-23T04:25:04.985Z,1017.47
2018-12-23T04:26:04.975Z,1017.49
2018-12-23T04:27:04.964Z,1017.47
2018-12-23T04:28:04.958Z,1017.49
2018-12-23T04:29:04.936Z,1017.52
2018-12-23T04:30:04.958Z,1017.53
2018-12-23T04:31:04.912Z,1017.51
2018-12-23T04:32:04.925Z,1017.55
2018-12-23T04:33:04.892Z,1017.53
2018-12-23T04:34:04.926Z,1017.53
2018-12-23T04:35:04.874Z,1017.48
2018-12-23T04:36:04.869Z,1017.48
2018-12-23T04:37:04.948Z,1017.42
2018-12-23T04:38:04.840Z,1017.42
2018-12-23T04:39:04.856Z,1017.45
2018-12-23T04:40:04.819Z,1017.46
2018-12-23T04:41:04.800Z,1017.37
2018-12-23T04:42:04.799Z,1017.33
2018-12-23T04:43:04.783Z,1017.39
2018-12-23T04:44:04.768Z,1017.33
2018-12-23T04:45:04.791Z,1017.33
2018-12-23T04:46:04.747Z,1017.25
2018-12-23T04:47:04.733Z,1017.27
2018-12-23T04:48:04.727Z,1017.23
2018-12-23T04:49:04.724Z,1017.28
2018-12-23T04:50:04.711Z,1017.25
2018-12-23T04:51:04.737Z,1017.30
2018-12-23T04:52:04.677Z,1017.28
2018-12-23T04:53:04.682Z,1017.24
2018-12-23T04:54:04.657Z,1017.19
2018-12-23T04:55:04.654Z,1017.21
2018-12-23T04:56:04.690Z,1017.16
2018-12-23T04:57:04.632Z,1017.10
2018-12-23T04:58:04.611Z,1017.12
2018-12-23T04:59:04.605Z,1017.15
2018-12-23T05:00:04.591Z,1017.14
2018-12-23T05:01:04.620Z,1017.13
2018-12-23T05:02:04.572Z,1017.14
2018-12-23T05:03:04.556Z,1017.16
2018-12-23T05:04:04.545Z,1017.17
2018-12-23T05:05:04.536Z,1017.15
2018-12-23T05:06:04.530Z,1017.18
2018-12-23T05:07:04.536Z,1017.15
2018-12-23T05:08:04.512Z,1017.15
2018-12-23T05:09:05.270Z,1017.15
2018-12-23T05:10:04.487Z,1017.09
2018-12-23T05:11:04.474Z,1017.14
2018-12-23T05:12:04.468Z,1017.16
2018-12-23T05:13:04.486Z,1017.14
2018-12-23T05:14:04.440Z,1017.18
2018-12-23T05:15:04.427Z,1017.20
2018-12-23T05:16:04.420Z,1017.16
2018-12-23T05:17:04.404Z,1017.14
2018-12-23T05:18:04.398Z,1017.16
2018-12-23T05:19:04.407Z,1017.15
2018-12-23T05:20:04.371Z,1017.10
2018-12-23T05:21:04.362Z,1017.12
2018-12-23T05:22:04.359Z,1017.07
2018-12-23T05:23:04.372Z,1017.12
2018-12-23T05:24:04.339Z,1017.08
2018-12-23T05:25:04.319Z,1017.07
2018-12-23T05:26:04.312Z,1017.11
2018-12-23T05:27:04.292Z,1017.08
2018-12-23T05:28:04.299Z,1017.06
2018-12-23T05:29:04.293Z,1017.04
2018-12-23T05:30:04.336Z,1017.02
2018-12-23T05:31:04.252Z,1017.06
2018-12-23T05:32:04.244Z,1017.11
2018-12-23T05:33:04.268Z,1017.00
2018-12-23T05:34:04.245Z,1017.07
2018-12-23T05:35:04.209Z,1017.13
2018-12-23T05:36:04.196Z,1017.06
2018-12-23T05:37:04.183Z,1017.04
2018-12-23T05:38:04.172Z,1017.03
2018-12-23T05:39:04.159Z,1017.07
2018-12-23T05:40:04.177Z,1017.03
2018-12-23T05:41:04.149Z,1017.07
2018-12-23T05:42:04.131Z,1017.11
2018-12-23T05:43:04.119Z,1017.10
2018-12-23T05:44:04.109Z,1017.10
2018-12-23T05:45:04.126Z,1017.16
2018-12-23T05:46:04.158Z,1017.16
2018-12-23T05:47:04.070Z,1017.12
2018-12-23T05:48:04.071Z,1017.14
2018-12-23T05:49:04.143Z,1017.16
2018-12-23T05:50:04.043Z,1017.20
2018-12-23T05:51:04.062Z,1017.14
2018-12-23T05:52:04.063Z,1017.17
2018-12-23T05:53:04.010Z,1017.15
2018-12-23T05:54:04.002Z,1017.12
2018-12-23T05:55:03.987Z,1017.19
2018-12-23T05:56:04.020Z,1017.17
2018-12-23T05:57:03.962Z,1017.22
2018-12-23T05:58:03.950Z,1017.09
2018-12-23T05:59:03.950Z,1017.15
2018-12-23T06:00:03.929Z,1017.20
2018-12-23T06:01:03.934Z,1017.16
2018-12-23T06:02:04.018Z,1017.14
2018-12-23T06:03:03.914Z,1017.09
2018-12-23T06:04:03.889Z,1017.09
2018-12-23T06:05:03.911Z,1017.11
2018-12-23T06:06:03.865Z,1017.08
2018-12-23T06:07:03.853Z,1017.17
2018-12-23T06:08:03.872Z,1017.10
2018-12-23T06:09:05.402Z,1017.12
2018-12-23T06:10:03.826Z,1017.13
2018-12-23T06:11:03.812Z,1017.18
2018-12-23T06:12:03.799Z,1017.09
2018-12-23T06:13:03.830Z,1017.10
2018-12-23T06:14:03.807Z,1017.11
2018-12-23T06:15:03.769Z,1017.09
2018-12-23T06:16:03.764Z,1017.08
2018-12-23T06:17:03.757Z,1017.10
2018-12-23T06:18:03.732Z,1017.03
2018-12-23T06:19:03.750Z,1017.02
2018-12-23T06:20:03.744Z,1017.08
2018-12-23T06:21:03.698Z,1017.09
2018-12-23T06:22:03.689Z,1017.08
2018-12-23T06:23:03.681Z,1017.02
2018-12-23T06:24:03.666Z,1017.10
2018-12-23T06:25:03.664Z,1017.12
2018-12-23T06:26:03.816Z,1017.12
2018-12-23T06:27:03.628Z,1017.13
2018-12-23T06:28:03.631Z,1017.23
2018-12-23T06:29:03.659Z,1017.14
2018-12-23T06:30:03.606Z,1017.18
2018-12-23T06:31:03.584Z,1017.15
2018-12-23T06:32:03.597Z,1017.21
2018-12-23T06:33:03.565Z,1017.15
2018-12-23T06:34:03.551Z,1017.12
2018-12-23T06:35:03.542Z,1017.16
2018-12-23T06:36:03.529Z,1017.16
2018-12-23T06:37:10.034Z,1017.17
2018-12-23T06:38:04.528Z,1017.14
2018-12-23T06:39:03.504Z,1017.21
2018-12-23T06:40:03.487Z,1017.15
2018-12-23T06:41:03.479Z,1017.17
2018-12-23T06:42:03.582Z,1017.11
2018-12-23T06:43:03.457Z,1017.11
2018-12-23T06:44:03.449Z,1017.10
2018-12-23T06:45:03.571Z,1017.14
2018-12-23T06:46:03.422Z,1017.09
2018-12-23T06:47:03.408Z,1017.08
2018-12-23T06:48:03.422Z,1017.04
2018-12-23T06:49:03.388Z,1017.13
2018-12-23T06:50:03.380Z,1017.03
2018-12-23T06:51:03.368Z,1017.05
2018-12-23T06:52:03.372Z,1017.09
2018-12-23T06:53:03.375Z,1017.07
2018-12-23T06:54:03.332Z,1017.05
2018-12-23T06:55:03.318Z,1017.10
2018-12-23T06:56:03.307Z,1017.09
2018-12-23T06:57:03.299Z,1017.08
2018-12-23T06:58:03.293Z,1017.10
2018-12-23T06:59:03.310Z,1017.16
2018-12-23T07:00:03.266Z,1017.11
2018-12-23T07:01:03.253Z,1017.13
2018-12-23T07:02:03.258Z,1017.09
2018-12-23T07:03:03.228Z,1017.09
2018-12-23T07:04:03.216Z,1017.14
2018-12-23T07:05:03.243Z,1017.12
2018-12-23T07:06:03.221Z,1017.06
2018-12-23T07:07:03.200Z,1017.10
2018-12-23T07:08:03.185Z,1017.03
2018-12-23T07:09:03.221Z,1017.05
2018-12-23T07:10:03.167Z,1017.02
2018-12-23T07:11:03.179Z,1016.99
2018-12-23T07:12:03.134Z,1017.03
2018-12-23T07:13:03.122Z,1017.04
2018-12-23T07:14:03.109Z,1017.06
2018-12-23T07:15:03.113Z,1017.05
2018-12-23T07:16:03.091Z,1017.07
2018-12-23T07:17:03.100Z,1017.05
2018-12-23T07:18:03.069Z,1017.05
2018-12-23T07:19:03.057Z,1017.07
2018-12-23T07:20:03.046Z,1016.99
2018-12-23T07:21:03.042Z,1016.95
2018-12-23T07:22:03.079Z,1016.88
2018-12-23T07:23:03.007Z,1016.95
2018-12-23T07:24:02.997Z,1016.95
2018-12-23T07:25:02.998Z,1016.94
2018-12-23T07:26:02.994Z,1016.94
2018-12-23T07:27:02.969Z,1016.91
2018-12-23T07:28:03.032Z,1016.92
2018-12-23T07:29:02.967Z,1016.89
2018-12-23T07:30:02.937Z,1016.89
2018-12-23T07:31:02.926Z,1016.87
2018-12-23T07:32:02.920Z,1016.90
2018-12-23T07:33:03.001Z,1016.90
2018-12-23T07:34:02.903Z,1016.88
2018-12-23T07:35:02.908Z,1016.94
2018-12-23T07:36:02.868Z,1016.89
2018-12-23T07:37:02.861Z,1016.89
2018-12-23T07:38:05.010Z,1016.86
2018-12-23T07:39:02.846Z,1016.86
2018-12-23T07:40:02.848Z,1016.87
2018-12-23T07:41:02.919Z,1016.84
2018-12-23T07:42:02.805Z,1016.85
2018-12-23T07:43:02.803Z,1016.83
2018-12-23T07:44:02.829Z,1016.87
2018-12-23T07:45:02.765Z,1016.81
2018-12-23T07:46:02.758Z,1016.80
2018-12-23T07:47:02.753Z,1016.77
2018-12-23T07:48:02.735Z,1016.85
2018-12-23T07:49:02.747Z,1016.83
2018-12-23T07:50:02.745Z,1016.92
2018-12-23T07:51:02.704Z,1016.88
2018-12-23T07:52:02.694Z,1016.92
2018-12-23T07:53:02.686Z,1016.88
2018-12-23T07:54:02.674Z,1016.85
2018-12-23T07:55:02.720Z,1016.84
2018-12-23T07:56:02.653Z,1016.86
2018-12-23T07:57:02.636Z,1016.88
2018-12-23T07:58:02.625Z,1016.86
2018-12-23T07:59:02.635Z,1016.85
2018-12-23T08:00:02.604Z,1016.81
2018-12-23T08:01:02.594Z,1016.87
2018-12-23T08:02:02.619Z,1016.86
2018-12-23T08:03:02.569Z,1016.85
2018-12-23T08:04:02.564Z,1016.83
2018-12-23T08:05:02.616Z,1016.82
2018-12-23T08:06:02.540Z,1016.85
2018-12-23T08:07:02.531Z,1016.88
2018-12-23T08:08:02.516Z,1016.79
2018-12-23T08:09:02.519Z,1016.79
2018-12-23T08:10:02.495Z,1016.78
2018-12-23T08:11:02.495Z,1016.83
2018-12-23T08:12:02.480Z,1016.78
2018-12-23T08:13:02.468Z,1016.72
2018-12-23T08:14:02.451Z,1016.74
2018-12-23T08:15:02.570Z,1016.75
2018-12-23T08:16:02.458Z,1016.73
2018-12-23T08:17:02.417Z,1016.75
2018-12-23T08:18:02.406Z,1016.71
2018-12-23T08:19:02.390Z,1016.70
2018-12-23T08:20:02.380Z,1016.71
2018-12-23T08:21:02.497Z,1016.69
2018-12-23T08:22:02.391Z,1016.69
2018-12-23T08:23:02.349Z,1016.65
2018-12-23T08:24:02.339Z,1016.63
2018-12-23T08:25:02.332Z,1016.66
2018-12-23T08:26:02.322Z,1016.63
2018-12-23T08:27:02.320Z,1016.67
2018-12-23T08:28:02.320Z,1016.63
2018-12-23T08:29:02.327Z,1016.71
2018-12-23T08:30:02.278Z,1016.66
2018-12-23T08:31:02.264Z,1016.68
2018-12-23T08:32:02.258Z,1016.66
2018-12-23T08:33:02.238Z,1016.63
2018-12-23T08:34:02.253Z,1016.68
2018-12-23T08:35:02.217Z,1016.64
2018-12-23T08:36:02.228Z,1016.68
2018-12-23T08:37:02.197Z,1016.68
2018-12-23T08:38:02.208Z,1016.67
2018-12-23T08:39:02.188Z,1016.73
2018-12-23T08:40:02.165Z,1016.69
2018-12-23T08:41:02.150Z,1016.70
2018-12-23T08:42:02.155Z,1016.75
2018-12-23T08:43:02.130Z,1016.76
2018-12-23T08:44:02.138Z,1016.72
2018-12-23T08:45:02.262Z,1016.74
2018-12-23T08:46:02.103Z,1016.74
2018-12-23T08:47:02.087Z,1016.76
2018-12-23T08:48:02.076Z,1016.70
2018-12-23T08:49:02.157Z,1016.78
2018-12-23T08:50:02.055Z,1016.70
2018-12-23T08:51:02.066Z,1016.62
2018-12-23T08:52:02.046Z,1016.68
2018-12-23T08:53:02.051Z,1016.67
2018-12-23T08:54:02.019Z,1016.66
2018-12-23T08:55:02.027Z,1016.73
2018-12-23T08:56:01.985Z,1016.67
2018-12-23T08:57:02.010Z,1016.75
2018-12-23T08:58:01.996Z,1016.70
2018-12-23T08:59:01.955Z,1016.71
2018-12-23T09:00:01.944Z,1016.68
2018-12-23T09:01:01.984Z,1016.70
2018-12-23T09:02:01.979Z,1016.73
2018-12-23T09:03:01.928Z,1016.71
2018-12-23T09:04:01.919Z,1016.69
2018-12-23T09:05:01.886Z,1016.71
2018-12-23T09:06:01.886Z,1016.70
2018-12-23T09:07:01.899Z,1016.66
2018-12-23T09:08:01.858Z,1016.65
2018-12-23T09:09:01.865Z,1016.71
2018-12-23T09:10:01.832Z,1016.74
2018-12-23T09:11:01.823Z,1016.73
2018-12-23T09:12:01.814Z,1016.68
2018-12-23T09:13:01.806Z,1016.67
2018-12-23T09:14:01.824Z,1016.68
2018-12-23T09:15:01.787Z,1016.74
2018-12-23T09:16:01.773Z,1016.75
2018-12-23T09:17:01.949Z,1016.69
2018-12-23T09:18:01.749Z,1016.69
2018-12-23T09:19:01.737Z,1016.74
2018-12-23T09:20:01.804Z,1016.69
2018-12-23T09:21:01.726Z,1016.65
2018-12-23T09:22:01.703Z,1016.68
2018-12-23T09:23:01.701Z,1016.64
2018-12-23T09:24:01.697Z,1016.65
2018-12-23T09:25:01.861Z,1016.65
2018-12-23T09:26:01.669Z,1016.66
2018-12-23T09:27:01.654Z,1016.59
2018-12-23T09:28:01.647Z,1016.57
2018-12-23T09:29:01.633Z,1016.56
2018-12-23T09:30:01.646Z,1016.56
2018-12-23T09:31:01.636Z,1016.49
2018-12-23T09:32:01.595Z,1016.51
2018-12-23T09:33:01.603Z,1016.46
2018-12-23T09:34:01.573Z,1016.44
2018-12-23T09:35:01.561Z,1016.45
2018-12-23T09:36:01.595Z,1016.46
2018-12-23T09:37:01.548Z,1016.50
2018-12-23T09:38:01.907Z,1016.44
2018-12-23T09:39:01.518Z,1016.42
2018-12-23T09:40:01.512Z,1016.41
2018-12-23T09:41:01.609Z,1016.40
2018-12-23T09:42:01.523Z,1016.42
2018-12-23T09:43:01.476Z,1016.44
2018-12-23T09:44:01.505Z,1016.42
2018-12-23T09:45:01.467Z,1016.41
2018-12-23T09:46:01.439Z,1016.41
2018-12-23T09:47:01.439Z,1016.38
2018-12-23T09:48:01.437Z,1016.40
2018-12-23T09:49:01.406Z,1016.40
2018-12-23T09:50:01.405Z,1016.41
2018-12-23T09:51:01.391Z,1016.37
2018-12-23T09:52:01.376Z,1016.36
2018-12-23T09:53:01.434Z,1016.41
2018-12-23T09:54:01.363Z,1016.35
2018-12-23T09:55:01.344Z,1016.34
2018-12-23T09:56:01.337Z,1016.35
2018-12-23T09:57:01.434Z,1016.36
2018-12-23T09:58:01.314Z,1016.33
2018-12-23T09:59:01.322Z,1016.34
2018-12-23T10:00:01.393Z,1016.35
2018-12-23T10:01:01.302Z,1016.35
2018-12-23T10:02:01.271Z,1016.34
2018-12-23T10:03:01.255Z,1016.30
2018-12-23T10:04:01.247Z,1016.20
2018-12-23T10:05:01.234Z,1016.24
2018-12-23T10:06:08.430Z,1016.13
2018-12-23T10:07:01.240Z,1016.17
2018-12-23T10:08:09.785Z,1016.18
2018-12-23T10:09:02.199Z,1016.13
2018-12-23T10:10:01.175Z,1016.04
2018-12-23T10:11:01.169Z,1016.03
2018-12-23T10:12:01.173Z,1016.01
2018-12-23T10:13:01.188Z,1016.01
2018-12-23T10:14:01.162Z,1016.03
2018-12-23T10:15:08.323Z,1016.07
2018-12-23T10:16:01.112Z,1015.98
2018-12-23T10:17:01.123Z,1016.00
2018-12-23T10:18:01.891Z,1016.06
2018-12-23T10:19:01.080Z,1015.96
2018-12-23T10:20:01.064Z,1015.98
2018-12-23T10:21:01.117Z,1015.87
2018-12-23T10:22:01.043Z,1015.94
2018-12-23T10:23:01.050Z,1015.91
2018-12-23T10:24:01.026Z,1015.88
2018-12-23T10:25:01.020Z,1015.85
2018-12-23T10:26:01.009Z,1015.80
2018-12-23T10:27:00.994Z,1015.84
2018-12-23T10:28:00.982Z,1015.81
2018-12-23T10:29:00.999Z,1015.79
2018-12-23T10:30:00.957Z,1015.77
2018-12-23T10:31:01.042Z,1015.81
2018-12-23T10:32:00.951Z,1015.84
2018-12-23T10:33:00.941Z,1015.76
2018-12-23T10:34:01.079Z,1015.76
2018-12-23T10:35:00.942Z,1015.82
2018-12-23T10:36:00.906Z,1015.81
2018-12-23T10:37:00.970Z,1015.78
2018-12-23T10:38:00.870Z,1015.78
2018-12-23T10:39:00.861Z,1015.84
2018-12-23T10:40:00.850Z,1015.86
2018-12-23T10:41:00.858Z,1015.79
2018-12-23T10:42:00.838Z,1015.71
2018-12-23T10:43:01.435Z,1015.76
2018-12-23T10:44:00.807Z,1015.81
2018-12-23T10:45:00.801Z,1015.71
2018-12-23T10:46:00.777Z,1015.67
2018-12-23T10:47:00.776Z,1015.64
2018-12-23T10:48:00.752Z,1015.65
2018-12-23T10:49:00.772Z,1015.62
2018-12-23T10:50:00.744Z,1015.63
2018-12-23T10:51:00.724Z,1015.58
2018-12-23T10:52:00.713Z,1015.56
2018-12-23T10:53:00.730Z,1015.56
2018-12-23T10:54:00.688Z,1015.52
2018-12-23T10:55:00.714Z,1015.48
2018-12-23T10:56:00.672Z,1015.45
2018-12-23T10:57:00.671Z,1015.42
2018-12-23T10:58:00.648Z,1015.42
2018-12-23T10:59:00.641Z,1015.42
2018-12-23T11:00:00.624Z,1015.32
2018-12-23T11:01:00.632Z,1015.34
2018-12-23T11:02:00.607Z,1015.26
2018-12-23T11:03:00.595Z,1015.31
2018-12-23T11:04:00.591Z,1015.25
2018-12-23T11:05:00.689Z,1015.25
2018-12-23T11:06:00.559Z,1015.21
2018-12-23T11:07:00.544Z,1015.24
2018-12-23T11:08:00.567Z,1015.19
2018-12-23T11:09:00.529Z,1015.13
2018-12-23T11:10:02.264Z,1015.12
2018-12-23T11:11:00.504Z,1015.05
2018-12-23T11:12:00.505Z,1015.03
2018-12-23T11:13:00.508Z,1015.03
2018-12-23T11:14:00.509Z,1015.08
2018-12-23T11:15:00.460Z,1014.99
2018-12-23T11:16:00.454Z,1015.04
2018-12-23T11:17:00.503Z,1014.99
2018-12-23T11:18:00.425Z,1014.96
2018-12-23T11:19:00.438Z,1014.99
2018-12-23T11:20:00.497Z,1015.00
2018-12-23T11:21:00.395Z,1014.93
2018-12-23T11:22:00.389Z,1014.87
2018-12-23T11:23:00.366Z,1014.95
2018-12-23T11:24:00.400Z,1014.91
2018-12-23T11:25:00.348Z,1014.87
2018-12-23T11:26:00.342Z,1014.88
2018-12-23T11:27:00.329Z,1014.90
2018-12-23T11:28:00.311Z,1014.85
2018-12-23T11:29:00.304Z,1014.78
2018-12-23T11:30:00.330Z,1014.68
2018-12-23T11:31:00.280Z,1014.65
2018-12-23T11:32:00.278Z,1014.65
2018-12-23T11:33:00.344Z,1014.60
2018-12-23T11:34:00.247Z,1014.64
2018-12-23T11:35:00.276Z,1014.66
2018-12-23T11:36:00.226Z,1014.59
2018-12-23T11:37:00.225Z,1014.51
2018-12-23T11:38:00.243Z,1014.50
2018-12-23T11:39:00.224Z,1014.46
2018-12-23T11:40:00.246Z,1014.49
2018-12-23T11:41:00.181Z,1014.50
2018-12-23T11:42:00.167Z,1014.43
2018-12-23T11:43:00.153Z,1014.43
2018-12-23T11:44:00.145Z,1014.42
2018-12-23T11:45:00.279Z,1014.46
2018-12-23T11:46:00.250Z,1014.40
2018-12-23T11:47:00.116Z,1014.40
2018-12-23T11:48:00.105Z,1014.31
2018-12-23T11:49:00.235Z,1014.32
2018-12-23T11:50:00.155Z,1014.38
2018-12-23T11:51:00.058Z,1014.34
2018-12-23T11:52:00.111Z,1014.33
2018-12-23T11:53:00.035Z,1014.39
2018-12-23T11:54:00.024Z,1014.30
2018-12-23T11:55:00.084Z,1014.27
2018-12-23T11:56:00.021Z,1014.31
2018-12-23T11:57:00.217Z,1014.26
2018-12-23T11:57:59.979Z,1014.33
2018-12-23T11:58:59.969Z,1014.29
2018-12-23T11:59:59.969Z,1014.28
2018-12-23T12:00:59.960Z,1014.30
2018-12-23T12:01:59.955Z,1014.24
2018-12-23T12:02:59.991Z,1014.19
2018-12-23T12:03:59.924Z,1014.25
2018-12-23T12:04:59.905Z,1014.30